San Angelo's Hourly Summary for Saturday, May 12, 2018
Hour Temp
(f)
RH
(%)
Solar Rad.
(MJ/m2)
Rainfall
(in)
Wind
(mph)
5/12/2018 12:00 AM 77 48 0 0 6.34
5/12/2018 1:00 AM 75 51 0 0 5.11
5/12/2018 2:00 AM 74 53 0 0 7.21
5/12/2018 3:00 AM 73 57 0 0 8.49
5/12/2018 4:00 AM 72 65 0 0 8.27
5/12/2018 5:00 AM 71 73 0 0 7.11
5/12/2018 6:00 AM 69 74 0 0 6.96
5/12/2018 7:00 AM 68 75 0.01 0 5.15
5/12/2018 8:00 AM 68 76 0.32 0 7.23
5/12/2018 9:00 AM 70 66 1.12 0 11.78
5/12/2018 10:00 AM 73 56 1.73 0 12.59
5/12/2018 11:00 AM 77 52 2.33 0 12.76
5/12/2018 12:00 PM 80 45 2.7 0 11.57
5/12/2018 1:00 PM 83 42 3.15 0 12.57
5/12/2018 2:00 PM 86 39 3.31 0 12.34
5/12/2018 3:00 PM 88 36 3.2 0 11.18
5/12/2018 4:00 PM 90 34 2.88 0 9.33
5/12/2018 5:00 PM 91 31 2.38 0 9.12
5/12/2018 6:00 PM 91 30 1.74 0 8.21
5/12/2018 7:00 PM 91 32 1.03 0 9.03
5/12/2018 8:00 PM 89 34 0.36 0 9.37
5/12/2018 9:00 PM 88 36 0.03 0 8
5/12/2018 10:00 PM 85 39 0 0 9.09
5/12/2018 11:00 PM 83 44 0 0 10.54
Data Summary 79 49 26.29 0.00 9.14